sensor_id;sensor_type;location;lat;lon;timestamp;pressure;altitude;pressure_sealevel;temperature;humidity
23677;BME280;31493;49.058;12.190;2022-09-09T00:00:19;95867.03;;;15.68;100.00
23677;BME280;31493;49.058;12.190;2022-09-09T00:02:59;95863.75;;;15.66;100.00
23677;BME280;31493;49.058;12.190;2022-09-09T00:05:32;95858.78;;;15.53;100.00
23677;BME280;31493;49.058;12.190;2022-09-09T00:08:03;95852.19;;;15.68;100.00
23677;BME280;31493;49.058;12.190;2022-09-09T00:10:33;95864.81;;;15.53;100.00
23677;BME280;31493;49.058;12.190;2022-09-09T00:13:07;95851.53;;;15.47;100.00
23677;BME280;31493;49.058;12.190;2022-09-09T00:15:41;95855.31;;;15.52;100.00
23677;BME280;31493;49.058;12.190;2022-09-09T00:18:17;95850.81;;;15.45;100.00
23677;BME280;31493;49.058;12.190;2022-09-09T00:20:50;95844.94;;;15.43;100.00
23677;BME280;31493;49.058;12.190;2022-09-09T00:23:24;95845.75;;;15.33;100.00
23677;BME280;31493;49.058;12.190;2022-09-09T00:25:59;95846.03;;;15.30;100.00
23677;BME280;31493;49.058;12.190;2022-09-09T00:28:30;95844.94;;;15.33;100.00
23677;BME280;31493;49.058;12.190;2022-09-09T00:31:01;95847.81;;;15.30;100.00
23677;BME280;31493;49.058;12.190;2022-09-09T00:33:38;95847.66;;;15.22;100.00
23677;BME280;31493;49.058;12.190;2022-09-09T00:36:12;95836.44;;;15.31;100.00
23677;BME280;31493;49.058;12.190;2022-09-09T00:38:42;95835.88;;;15.18;100.00
23677;BME280;31493;49.058;12.190;2022-09-09T00:41:15;95839.03;;;15.12;100.00
23677;BME280;31493;49.058;12.190;2022-09-09T00:43:52;95840.69;;;15.13;100.00
23677;BME280;31493;49.058;12.190;2022-09-09T00:46:35;95843.84;;;15.16;100.00
23677;BME280;31493;49.058;12.190;2022-09-09T00:49:15;95850.81;;;15.16;100.00
23677;BME280;31493;49.058;12.190;2022-09-09T00:51:48;95844.69;;;15.17;100.00
23677;BME280;31493;49.058;12.190;2022-09-09T00:54:29;95846.03;;;15.01;100.00
23677;BME280;31493;49.058;12.190;2022-09-09T00:57:09;95845.75;;;14.95;100.00
23677;BME280;31493;49.058;12.190;2022-09-09T00:59:45;95850.28;;;14.93;100.00
23677;BME280;31493;49.058;12.190;2022-09-09T01:02:18;95850.16;;;14.94;100.00
23677;BME280;31493;49.058;12.190;2022-09-09T01:04:50;95842.31;;;14.94;100.00
23677;BME280;31493;49.058;12.190;2022-09-09T01:07:18;95843.28;;;14.93;100.00
23677;BME280;31493;49.058;12.190;2022-09-09T01:09:52;95848.91;;;14.89;100.00
23677;BME280;31493;49.058;12.190;2022-09-09T01:12:26;95855.63;;;14.82;100.00
23677;BME280;31493;49.058;12.190;2022-09-09T01:15:03;95850.56;;;14.80;100.00
23677;BME280;31493;49.058;12.190;2022-09-09T01:17:38;95848.34;;;14.75;100.00
23677;BME280;31493;49.058;12.190;2022-09-09T01:20:11;95853.56;;;14.85;100.00
23677;BME280;31493;49.058;12.190;2022-09-09T01:22:45;95845.44;;;14.78;100.00
23677;BME280;31493;49.058;12.190;2022-09-09T01:25:25;95854.50;;;14.84;100.00
23677;BME280;31493;49.058;12.190;2022-09-09T01:27:58;95848.91;;;14.89;100.00
23677;BME280;31493;49.058;12.190;2022-09-09T01:30:26;95853.97;;;14.81;100.00
23677;BME280;31493;49.058;12.190;2022-09-09T01:32:56;95851.91;;;14.74;100.00
23677;BME280;31493;49.058;12.190;2022-09-09T01:35:35;95839.97;;;14.82;100.00
23677;BME280;31493;49.058;12.190;2022-09-09T01:38:04;95842.72;;;14.80;100.00
23677;BME280;31493;49.058;12.190;2022-09-09T01:40:32;95847.66;;;14.73;100.00
23677;BME280;31493;49.058;12.190;2022-09-09T01:43:01;95834.19;;;14.59;100.00
23677;BME280;31493;49.058;12.190;2022-09-09T01:45:28;95836.00;;;14.68;100.00
23677;BME280;31493;49.058;12.190;2022-09-09T01:47:55;95838.19;;;14.63;100.00
23677;BME280;31493;49.058;12.190;2022-09-09T01:50:23;95829.78;;;14.59;100.00
23677;BME280;31493;49.058;12.190;2022-09-09T01:52:53;95823.38;;;14.63;100.00
23677;BME280;31493;49.058;12.190;2022-09-09T01:55:29;95822.97;;;14.68;100.00
23677;BME280;31493;49.058;12.190;2022-09-09T01:58:09;95834.31;;;14.67;100.00
23677;BME280;31493;49.058;12.190;2022-09-09T02:00:44;95842.56;;;14.62;100.00
23677;BME280;31493;49.058;12.190;2022-09-09T02:03:20;95832.25;;;14.61;100.00
23677;BME280;31493;49.058;12.190;2022-09-09T02:05:57;95838.44;;;14.50;100.00
23677;BME280;31493;49.058;12.190;2022-09-09T02:08:33;95835.00;;;14.49;100.00
23677;BME280;31493;49.058;12.190;2022-09-09T02:11:06;95831.44;;;14.50;100.00
23677;BME280;31493;49.058;12.190;2022-09-09T02:13:36;95829.78;;;14.49;100.00
23677;BME280;31493;49.058;12.190;2022-09-09T02:16:07;95843.06;;;14.46;100.00
23677;BME280;31493;49.058;12.190;2022-09-09T02:18:38;95836.94;;;14.57;100.00
23677;BME280;31493;49.058;12.190;2022-09-09T02:21:07;95840.53;;;14.35;100.00
23677;BME280;31493;49.058;12.190;2022-09-09T02:23:35;95845.34;;;14.40;100.00
23677;BME280;31493;49.058;12.190;2022-09-09T02:26:03;95856.72;;;14.39;100.00
23677;BME280;31493;49.058;12.190;2022-09-09T02:28:32;95857.41;;;14.41;100.00
23677;BME280;31493;49.058;12.190;2022-09-09T02:31:01;95857.78;;;14.27;100.00
23677;BME280;31493;49.058;12.190;2022-09-09T02:33:32;95848.06;;;14.29;100.00
23677;BME280;31493;49.058;12.190;2022-09-09T02:36:02;95847.94;;;14.30;100.00
23677;BME280;31493;49.058;12.190;2022-09-09T02:38:35;95845.44;;;14.29;100.00
23677;BME280;31493;49.058;12.190;2022-09-09T02:41:05;95842.31;;;14.25;100.00
23677;BME280;31493;49.058;12.190;2022-09-09T02:43:32;95851.47;;;14.29;100.00
23677;BME280;31493;49.058;12.190;2022-09-09T02:46:04;95847.75;;;14.12;100.00
23677;BME280;31493;49.058;12.190;2022-09-09T02:48:41;95840.75;;;14.13;100.00
23677;BME280;31493;49.058;12.190;2022-09-09T02:51:18;95847.50;;;14.25;100.00
23677;BME280;31493;49.058;12.190;2022-09-09T02:53:59;95847.63;;;14.23;100.00
23677;BME280;31493;49.058;12.190;2022-09-09T02:56:30;95840.75;;;14.13;100.00
23677;BME280;31493;49.058;12.190;2022-09-09T02:58:59;95845.53;;;14.17;100.00
23677;BME280;31493;49.058;12.190;2022-09-09T03:01:31;95830.34;;;14.22;100.00
23677;BME280;31493;49.058;12.190;2022-09-09T03:03:58;95832.66;;;14.06;100.00
23677;BME280;31493;49.058;12.190;2022-09-09T03:06:25;95837.13;;;14.04;100.00
23677;BME280;31493;49.058;12.190;2022-09-09T03:08:53;95834.63;;;13.93;100.00
23677;BME280;31493;49.058;12.190;2022-09-09T03:11:20;95828.56;;;13.83;100.00
23677;BME280;31493;49.058;12.190;2022-09-09T03:13:47;95831.16;;;13.83;100.00
23677;BME280;31493;49.058;12.190;2022-09-09T03:16:15;95832.28;;;13.90;100.00
23677;BME280;31493;49.058;12.190;2022-09-09T03:18:44;95828.88;;;13.89;100.00
23677;BME280;31493;49.058;12.190;2022-09-09T03:21:11;95827.91;;;13.90;100.00
23677;BME280;31493;49.058;12.190;2022-09-09T03:23:39;95832.81;;;13.84;100.00
23677;BME280;31493;49.058;12.190;2022-09-09T03:26:06;95833.47;;;13.76;100.00
23677;BME280;31493;49.058;12.190;2022-09-09T03:28:34;95838.78;;;13.75;100.00
23677;BME280;31493;49.058;12.190;2022-09-09T03:31:01;95836.88;;;13.77;100.00
23677;BME280;31493;49.058;12.190;2022-09-09T03:33:29;95831.84;;;13.85;100.00
23677;BME280;31493;49.058;12.190;2022-09-09T03:35:58;95840.44;;;13.76;100.00
23677;BME280;31493;49.058;12.190;2022-09-09T03:38:25;95838.09;;;13.73;100.00
23677;BME280;31493;49.058;12.190;2022-09-09T03:40:53;95843.44;;;13.71;100.00
23677;BME280;31493;49.058;12.190;2022-09-09T03:43:21;95829.63;;;13.80;100.00
23677;BME280;31493;49.058;12.190;2022-09-09T03:45:48;95839.50;;;13.77;100.00
23677;BME280;31493;49.058;12.190;2022-09-09T03:48:16;95839.72;;;13.74;100.00
23677;BME280;31493;49.058;12.190;2022-09-09T03:50:44;95830.94;;;13.65;100.00
23677;BME280;31493;49.058;12.190;2022-09-09T03:53:14;95831.03;;;13.84;100.00
23677;BME280;31493;49.058;12.190;2022-09-09T03:55:43;95835.34;;;13.74;100.00
23677;BME280;31493;49.058;12.190;2022-09-09T03:58:12;95835.63;;;13.71;100.00
23677;BME280;31493;49.058;12.190;2022-09-09T04:00:39;95831.38;;;13.70;100.00
23677;BME280;31493;49.058;12.190;2022-09-09T04:03:08;95836.97;;;13.65;100.00
23677;BME280;31493;49.058;12.190;2022-09-09T04:05:35;95823.16;;;13.75;100.00
23677;BME280;31493;49.058;12.190;2022-09-09T04:08:05;95824.91;;;13.64;100.00
23677;BME280;31493;49.058;12.190;2022-09-09T04:10:34;95828.47;;;13.63;100.00
23677;BME280;31493;49.058;12.190;2022-09-09T04:13:03;95824.19;;;13.62;100.00
23677;BME280;31493;49.058;12.190;2022-09-09T04:15:30;95827.88;;;13.60;100.00
23677;BME280;31493;49.058;12.190;2022-09-09T04:17:57;95821.03;;;13.59;100.00
23677;BME280;31493;49.058;12.190;2022-09-09T04:20:24;95825.56;;;13.57;100.00
23677;BME280;31493;49.058;12.190;2022-09-09T04:22:51;95822.75;;;13.69;100.00
23677;BME280;31493;49.058;12.190;2022-09-09T04:25:18;95822.31;;;13.64;100.00
23677;BME280;31493;49.058;12.190;2022-09-09T04:27:47;95823.00;;;13.66;100.00
23677;BME280;31493;49.058;12.190;2022-09-09T04:30:16;95814.50;;;13.64;100.00
23677;BME280;31493;49.058;12.190;2022-09-09T04:32:43;95825.22;;;13.71;100.00
23677;BME280;31493;49.058;12.190;2022-09-09T04:35:10;95828.63;;;13.71;100.00
23677;BME280;31493;49.058;12.190;2022-09-09T04:37:37;95837.13;;;13.74;100.00
23677;BME280;31493;49.058;12.190;2022-09-09T04:40:05;95829.41;;;13.62;100.00
23677;BME280;31493;49.058;12.190;2022-09-09T04:42:34;95839.63;;;13.75;100.00
23677;BME280;31493;49.058;12.190;2022-09-09T04:45:03;95832.13;;;13.61;100.00
23677;BME280;31493;49.058;12.190;2022-09-09T04:47:30;95835.31;;;13.64;100.00
23677;BME280;31493;49.058;12.190;2022-09-09T04:49:57;95821.41;;;13.54;100.00
23677;BME280;31493;49.058;12.190;2022-09-09T04:52:24;95816.09;;;13.56;100.00
23677;BME280;31493;49.058;12.190;2022-09-09T04:54:51;95830.94;;;13.44;100.00
23677;BME280;31493;49.058;12.190;2022-09-09T04:57:19;95818.38;;;13.70;100.00
23677;BME280;31493;49.058;12.190;2022-09-09T04:59:46;95822.69;;;13.60;100.00
23677;BME280;31493;49.058;12.190;2022-09-09T05:02:15;95825.06;;;13.73;100.00
23677;BME280;31493;49.058;12.190;2022-09-09T05:04:42;95825.03;;;13.42;100.00
23677;BME280;31493;49.058;12.190;2022-09-09T05:07:09;95825.97;;;13.62;100.00
23677;BME280;31493;49.058;12.190;2022-09-09T05:09:36;95832.44;;;13.88;100.00
23677;BME280;31493;49.058;12.190;2022-09-09T05:12:03;95824.09;;;13.64;100.00
23677;BME280;31493;49.058;12.190;2022-09-09T05:14:30;95821.31;;;13.86;100.00
23677;BME280;31493;49.058;12.190;2022-09-09T05:16:57;95820.78;;;13.62;100.00
23677;BME280;31493;49.058;12.190;2022-09-09T05:19:26;95821.72;;;13.82;100.00
23677;BME280;31493;49.058;12.190;2022-09-09T05:21:53;95824.09;;;13.64;100.00
23677;BME280;31493;49.058;12.190;2022-09-09T05:24:20;95817.44;;;13.81;100.00
23677;BME280;31493;49.058;12.190;2022-09-09T05:26:49;95825.69;;;13.86;100.00
23677;BME280;31493;49.058;12.190;2022-09-09T05:29:16;95827.22;;;13.88;100.00
23677;BME280;31493;49.058;12.190;2022-09-09T05:31:45;95838.75;;;13.95;100.00
23677;BME280;31493;49.058;12.190;2022-09-09T05:34:12;95830.88;;;14.07;100.00
23677;BME280;31493;49.058;12.190;2022-09-09T05:36:41;95838.00;;;13.84;100.00
23677;BME280;31493;49.058;12.190;2022-09-09T05:39:08;95835.09;;;14.08;100.00
23677;BME280;31493;49.058;12.190;2022-09-09T05:41:37;95831.59;;;13.88;100.00
23677;BME280;31493;49.058;12.190;2022-09-09T05:44:04;95834.09;;;13.99;100.00
23677;BME280;31493;49.058;12.190;2022-09-09T05:46:31;95841.06;;;13.89;100.00
23677;BME280;31493;49.058;12.190;2022-09-09T05:48:58;95848.50;;;14.03;100.00
23677;BME280;31493;49.058;12.190;2022-09-09T05:51:27;95861.06;;;13.98;100.00
23677;BME280;31493;49.058;12.190;2022-09-09T05:53:57;95853.16;;;14.00;100.00
23677;BME280;31493;49.058;12.190;2022-09-09T05:56:26;95855.28;;;14.15;100.00
23677;BME280;31493;49.058;12.190;2022-09-09T05:58:54;95854.91;;;14.30;100.00
23677;BME280;31493;49.058;12.190;2022-09-09T06:01:23;95856.38;;;14.13;100.00
23677;BME280;31493;49.058;12.190;2022-09-09T06:03:52;95846.78;;;14.23;100.00
23677;BME280;31493;49.058;12.190;2022-09-09T06:06:21;95855.63;;;14.41;100.00
23677;BME280;31493;49.058;12.190;2022-09-09T06:08:51;95854.66;;;14.42;100.00
23677;BME280;31493;49.058;12.190;2022-09-09T06:11:21;95853.34;;;14.48;100.00
23677;BME280;31493;49.058;12.190;2022-09-09T06:13:49;95858.06;;;14.33;100.00
23677;BME280;31493;49.058;12.190;2022-09-09T06:16:21;95865.72;;;14.25;100.00
23677;BME280;31493;49.058;12.190;2022-09-09T06:18:49;95859.13;;;14.21;100.00
23677;BME280;31493;49.058;12.190;2022-09-09T06:21:18;95862.84;;;14.49;100.00
23677;BME280;31493;49.058;12.190;2022-09-09T06:23:46;95858.38;;;14.40;100.00
23677;BME280;31493;49.058;12.190;2022-09-09T06:26:15;95858.16;;;14.52;100.00
23677;BME280;31493;49.058;12.190;2022-09-09T06:28:45;95848.84;;;14.50;100.00
23677;BME280;31493;49.058;12.190;2022-09-09T06:31:15;95859.84;;;14.63;100.00
23677;BME280;31493;49.058;12.190;2022-09-09T06:33:43;95860.91;;;14.51;100.00
23677;BME280;31493;49.058;12.190;2022-09-09T06:36:12;95857.63;;;14.49;100.00
23677;BME280;31493;49.058;12.190;2022-09-09T06:38:40;95859.44;;;14.28;100.00
23677;BME280;31493;49.058;12.190;2022-09-09T06:41:09;95876.78;;;14.48;100.00
23677;BME280;31493;49.058;12.190;2022-09-09T06:43:36;95859.56;;;14.66;100.00
23677;BME280;31493;49.058;12.190;2022-09-09T06:46:08;95877.00;;;14.75;100.00
23677;BME280;31493;49.058;12.190;2022-09-09T06:48:36;95860.09;;;14.60;100.00
23677;BME280;31493;49.058;12.190;2022-09-09T06:51:04;95865.75;;;14.85;100.00
23677;BME280;31493;49.058;12.190;2022-09-09T06:53:32;95868.63;;;14.62;100.00
23677;BME280;31493;49.058;12.190;2022-09-09T06:55:59;95873.81;;;14.62;100.00
23677;BME280;31493;49.058;12.190;2022-09-09T06:58:27;95871.69;;;14.87;100.00
23677;BME280;31493;49.058;12.190;2022-09-09T07:01:02;95869.41;;;14.53;100.00
23677;BME280;31493;49.058;12.190;2022-09-09T07:03:30;95885.03;;;14.53;100.00
23677;BME280;31493;49.058;12.190;2022-09-09T07:05:58;95870.84;;;14.76;100.00
23677;BME280;31493;49.058;12.190;2022-09-09T07:08:25;95871.00;;;14.94;100.00
23677;BME280;31493;49.058;12.190;2022-09-09T07:10:52;95864.16;;;15.32;100.00
23677;BME280;31493;49.058;12.190;2022-09-09T07:13:24;95875.13;;;15.45;100.00
23677;BME280;31493;49.058;12.190;2022-09-09T07:15:51;95866.47;;;15.54;100.00
23677;BME280;31493;49.058;12.190;2022-09-09T07:18:18;95863.03;;;15.73;100.00
23677;BME280;31493;49.058;12.190;2022-09-09T07:20:54;95864.72;;;16.02;100.00
23677;BME280;31493;49.058;12.190;2022-09-09T07:23:21;95881.44;;;15.72;100.00
23677;BME280;31493;49.058;12.190;2022-09-09T07:25:49;95887.75;;;15.79;100.00
23677;BME280;31493;49.058;12.190;2022-09-09T07:28:16;95886.13;;;15.68;100.00
23677;BME280;31493;49.058;12.190;2022-09-09T07:30:43;95883.88;;;15.93;100.00
23677;BME280;31493;49.058;12.190;2022-09-09T07:33:10;95897.47;;;15.87;100.00
23677;BME280;31493;49.058;12.190;2022-09-09T07:35:37;95881.97;;;15.85;100.00
23677;BME280;31493;49.058;12.190;2022-09-09T07:38:06;95891.44;;;15.86;100.00
23677;BME280;31493;49.058;12.190;2022-09-09T07:40:33;95893.78;;;15.70;100.00
23677;BME280;31493;49.058;12.190;2022-09-09T07:43:00;95893.94;;;15.78;100.00
23677;BME280;31493;49.058;12.190;2022-09-09T07:45:27;95907.81;;;15.69;100.00
23677;BME280;31493;49.058;12.190;2022-09-09T07:47:54;95907.88;;;16.06;100.00
23677;BME280;31493;49.058;12.190;2022-09-09T07:50:22;95919.59;;;16.39;100.00
23677;BME280;31493;49.058;12.190;2022-09-09T07:52:50;95928.34;;;16.85;100.00
23677;BME280;31493;49.058;12.190;2022-09-09T07:55:19;95927.22;;;16.87;100.00
23677;BME280;31493;49.058;12.190;2022-09-09T07:57:46;95932.09;;;16.82;100.00
23677;BME280;31493;49.058;12.190;2022-09-09T08:00:14;95940.94;;;16.62;100.00
23677;BME280;31493;49.058;12.190;2022-09-09T08:02:41;95950.06;;;16.01;100.00
23677;BME280;31493;49.058;12.190;2022-09-09T08:05:08;95961.09;;;15.76;100.00
23677;BME280;31493;49.058;12.190;2022-09-09T08:07:35;95943.13;;;15.73;100.00
23677;BME280;31493;49.058;12.190;2022-09-09T08:10:03;95945.16;;;15.50;100.00
23677;BME280;31493;49.058;12.190;2022-09-09T08:12:32;95938.97;;;15.41;100.00
23677;BME280;31493;49.058;12.190;2022-09-09T08:14:59;95955.84;;;15.37;100.00
23677;BME280;31493;49.058;12.190;2022-09-09T08:17:26;95969.84;;;15.17;100.00
23677;BME280;31493;49.058;12.190;2022-09-09T08:19:53;95976.25;;;15.13;100.00
23677;BME280;31493;49.058;12.190;2022-09-09T08:22:20;95963.38;;;15.11;100.00
23677;BME280;31493;49.058;12.190;2022-09-09T08:24:47;95949.97;;;14.85;100.00
23677;BME280;31493;49.058;12.190;2022-09-09T08:27:14;95965.22;;;14.90;100.00
23677;BME280;31493;49.058;12.190;2022-09-09T08:29:43;95965.69;;;15.04;100.00
23677;BME280;31493;49.058;12.190;2022-09-09T08:32:10;95962.13;;;15.05;100.00
23677;BME280;31493;49.058;12.190;2022-09-09T08:34:37;95965.53;;;15.06;100.00
23677;BME280;31493;49.058;12.190;2022-09-09T08:37:04;95969.09;;;14.95;100.00
23677;BME280;31493;49.058;12.190;2022-09-09T08:39:31;95960.63;;;15.13;100.00
23677;BME280;31493;49.058;12.190;2022-09-09T08:42:20;95981.75;;;15.19;100.00
23677;BME280;31493;49.058;12.190;2022-09-09T08:45:12;95972.97;;;15.20;100.00
23677;BME280;31493;49.058;12.190;2022-09-09T08:47:51;95959.94;;;15.20;100.00
23677;BME280;31493;49.058;12.190;2022-09-09T08:50:23;95967.94;;;15.38;100.00
23677;BME280;31493;49.058;12.190;2022-09-09T08:52:55;95962.03;;;15.46;100.00
23677;BME280;31493;49.058;12.190;2022-09-09T08:55:32;95959.41;;;15.36;100.00
23677;BME280;31493;49.058;12.190;2022-09-09T08:58:09;95969.28;;;15.32;100.00
23677;BME280;31493;49.058;12.190;2022-09-09T09:00:44;95964.78;;;15.35;100.00
23677;BME280;31493;49.058;12.190;2022-09-09T09:03:18;95968.47;;;15.32;100.00
23677;BME280;31493;49.058;12.190;2022-09-09T09:05:57;95975.22;;;15.44;100.00
23677;BME280;31493;49.058;12.190;2022-09-09T09:08:32;95978.56;;;15.66;100.00
23677;BME280;31493;49.058;12.190;2022-09-09T09:11:03;95967.28;;;15.75;100.00
23677;BME280;31493;49.058;12.190;2022-09-09T09:13:35;95960.00;;;15.78;100.00
23677;BME280;31493;49.058;12.190;2022-09-09T09:16:26;95961.47;;;16.00;100.00
23677;BME280;31493;49.058;12.190;2022-09-09T09:18:58;95974.69;;;15.89;100.00
23677;BME280;31493;49.058;12.190;2022-09-09T09:21:34;95976.16;;;16.11;100.00
23677;BME280;31493;49.058;12.190;2022-09-09T09:24:04;95980.56;;;16.10;100.00
23677;BME280;31493;49.058;12.190;2022-09-09T09:26:35;95976.88;;;15.94;100.00
23677;BME280;31493;49.058;12.190;2022-09-09T09:29:10;95988.09;;;16.33;100.00
23677;BME280;31493;49.058;12.190;2022-09-09T09:31:42;95972.84;;;16.19;100.00
23677;BME280;31493;49.058;12.190;2022-09-09T09:34:10;95970.81;;;16.12;100.00
23677;BME280;31493;49.058;12.190;2022-09-09T09:36:40;95963.63;;;16.34;100.00
23677;BME280;31493;49.058;12.190;2022-09-09T09:39:08;95963.63;;;16.34;100.00
23677;BME280;31493;49.058;12.190;2022-09-09T09:41:38;95958.56;;;16.60;100.00
23677;BME280;31493;49.058;12.190;2022-09-09T09:44:18;95952.44;;;16.51;100.00
23677;BME280;31493;49.058;12.190;2022-09-09T09:46:50;95958.53;;;16.70;100.00
23677;BME280;31493;49.058;12.190;2022-09-09T09:49:17;95959.63;;;16.77;100.00
23677;BME280;31493;49.058;12.190;2022-09-09T09:51:44;95952.38;;;16.61;100.00
23677;BME280;31493;49.058;12.190;2022-09-09T09:54:18;95956.97;;;16.86;100.00
23677;BME280;31493;49.058;12.190;2022-09-09T09:56:48;95959.28;;;16.52;100.00
23677;BME280;31493;49.058;12.190;2022-09-09T09:59:20;95947.38;;;16.77;100.00
23677;BME280;31493;49.058;12.190;2022-09-09T10:01:48;95951.56;;;16.60;100.00
23677;BME280;31493;49.058;12.190;2022-09-09T10:04:18;95944.25;;;16.64;100.00
23677;BME280;31493;49.058;12.190;2022-09-09T10:06:46;95954.53;;;16.75;100.00
23677;BME280;31493;49.058;12.190;2022-09-09T10:09:22;95956.19;;;17.04;100.00
23677;BME280;31493;49.058;12.190;2022-09-09T10:11:56;95949.16;;;17.04;100.00
23677;BME280;31493;49.058;12.190;2022-09-09T10:14:30;95949.69;;;16.80;100.00
23677;BME280;31493;49.058;12.190;2022-09-09T10:17:12;95944.91;;;17.03;100.00
23677;BME280;31493;49.058;12.190;2022-09-09T10:19:54;95932.38;;;17.78;100.00
23677;BME280;31493;49.058;12.190;2022-09-09T10:22:26;95928.47;;;18.00;100.00
23677;BME280;31493;49.058;12.190;2022-09-09T10:25:14;95931.53;;;18.21;100.00
23677;BME280;31493;49.058;12.190;2022-09-09T10:28:00;95931.38;;;17.97;100.00
23677;BME280;31493;49.058;12.190;2022-09-09T10:30:42;95932.91;;;18.25;100.00
23677;BME280;31493;49.058;12.190;2022-09-09T10:33:22;95935.16;;;18.72;100.00
23677;BME280;31493;49.058;12.190;2022-09-09T10:36:04;95928.34;;;18.62;100.00
23677;BME280;31493;49.058;12.190;2022-09-09T10:38:39;95924.22;;;18.93;100.00
23677;BME280;31493;49.058;12.190;2022-09-09T10:41:18;95926.69;;;18.61;98.60
23677;BME280;31493;49.058;12.190;2022-09-09T10:46:44;95934.94;;;18.40;100.00
23677;BME280;31493;49.058;12.190;2022-09-09T10:49:24;95937.91;;;18.45;100.00
23677;BME280;31493;49.058;12.190;2022-09-09T10:52:01;95928.16;;;18.29;100.00
23677;BME280;31493;49.058;12.190;2022-09-09T10:54:44;95933.56;;;18.27;100.00
23677;BME280;31493;49.058;12.190;2022-09-09T10:57:20;95923.03;;;18.19;100.00
23677;BME280;31493;49.058;12.190;2022-09-09T10:59:56;95931.06;;;18.18;100.00
23677;BME280;31493;49.058;12.190;2022-09-09T11:02:27;95939.44;;;18.04;100.00
23677;BME280;31493;49.058;12.190;2022-09-09T11:04:57;95933.38;;;18.29;100.00
23677;BME280;31493;49.058;12.190;2022-09-09T11:07:34;95932.50;;;18.46;100.00
23677;BME280;31493;49.058;12.190;2022-09-09T11:10:14;95918.16;;;18.59;99.19
23677;BME280;31493;49.058;12.190;2022-09-09T11:12:45;95928.66;;;18.93;100.00
23677;BME280;31493;49.058;12.190;2022-09-09T11:15:19;95934.00;;;18.83;97.82
23677;BME280;31493;49.058;12.190;2022-09-09T11:17:49;95938.84;;;19.71;100.00
23677;BME280;31493;49.058;12.190;2022-09-09T11:20:17;95926.69;;;19.70;96.43
23677;BME280;31493;49.058;12.190;2022-09-09T11:22:49;95905.63;;;19.45;90.97
23677;BME280;31493;49.058;12.190;2022-09-09T11:25:19;95909.78;;;18.55;94.16
23677;BME280;31493;49.058;12.190;2022-09-09T11:27:59;95917.00;;;19.78;94.20
23677;BME280;31493;49.058;12.190;2022-09-09T11:30:39;95909.50;;;20.55;88.78
23677;BME280;31493;49.058;12.190;2022-09-09T11:33:22;95914.47;;;20.50;90.45
23677;BME280;31493;49.058;12.190;2022-09-09T11:36:04;95915.28;;;20.51;88.49
23677;BME280;31493;49.058;12.190;2022-09-09T11:38:41;95912.66;;;19.20;89.50
23677;BME280;31493;49.058;12.190;2022-09-09T11:41:12;95919.53;;;19.13;91.29
23677;BME280;31493;49.058;12.190;2022-09-09T11:43:41;95918.81;;;18.87;91.34
23677;BME280;31493;49.058;12.190;2022-09-09T11:46:10;95919.81;;;19.02;87.32
23677;BME280;31493;49.058;12.190;2022-09-09T11:48:41;95917.69;;;18.63;88.12
23677;BME280;31493;49.058;12.190;2022-09-09T11:51:13;95916.19;;;19.62;92.04
23677;BME280;31493;49.058;12.190;2022-09-09T11:53:52;95902.84;;;19.30;85.50
23677;BME280;31493;49.058;12.190;2022-09-09T11:56:25;95904.38;;;19.74;85.50
23677;BME280;31493;49.058;12.190;2022-09-09T11:58:55;95919.13;;;20.07;87.81
23677;BME280;31493;49.058;12.190;2022-09-09T12:01:29;95899.88;;;19.25;84.94
23677;BME280;31493;49.058;12.190;2022-09-09T12:04:21;95906.47;;;20.11;85.16
23677;BME280;31493;49.058;12.190;2022-09-09T12:06:56;95901.81;;;20.29;84.84
23677;BME280;31493;49.058;12.190;2022-09-09T12:09:32;95905.47;;;20.20;89.95
23677;BME280;31493;49.058;12.190;2022-09-09T12:12:22;95905.94;;;20.24;86.74
23677;BME280;31493;49.058;12.190;2022-09-09T12:15:03;95896.53;;;20.54;84.66
23677;BME280;31493;49.058;12.190;2022-09-09T12:17:44;95890.38;;;20.14;85.82
23677;BME280;31493;49.058;12.190;2022-09-09T12:20:14;95895.00;;;19.88;85.61
23677;BME280;31493;49.058;12.190;2022-09-09T12:23:05;95890.31;;;19.00;88.63
23677;BME280;31493;49.058;12.190;2022-09-09T12:25:48;95887.25;;;19.45;87.20
23677;BME280;31493;49.058;12.190;2022-09-09T12:28:22;95887.94;;;19.80;85.05
23677;BME280;31493;49.058;12.190;2022-09-09T12:30:58;95892.63;;;20.25;87.82
23677;BME280;31493;49.058;12.190;2022-09-09T12:33:34;95888.78;;;19.72;87.20
23677;BME280;31493;49.058;12.190;2022-09-09T12:36:03;95889.06;;;19.45;87.48
23677;BME280;31493;49.058;12.190;2022-09-09T12:38:34;95870.53;;;19.54;86.68
23677;BME280;31493;49.058;12.190;2022-09-09T12:41:03;95874.63;;;19.32;88.68
23677;BME280;31493;49.058;12.190;2022-09-09T12:43:31;95874.25;;;19.03;88.82
23677;BME280;31493;49.058;12.190;2022-09-09T12:46:00;95874.38;;;18.85;90.61
23677;BME280;31493;49.058;12.190;2022-09-09T12:48:33;95860.66;;;18.65;92.78
23677;BME280;31493;49.058;12.190;2022-09-09T12:51:03;95873.88;;;18.82;93.82
23677;BME280;31493;49.058;12.190;2022-09-09T12:53:34;95869.50;;;18.56;94.94
23677;BME280;31493;49.058;12.190;2022-09-09T12:56:05;95873.84;;;18.39;95.72
23677;BME280;31493;49.058;12.190;2022-09-09T12:58:33;95869.97;;;18.17;96.23
23677;BME280;31493;49.058;12.190;2022-09-09T13:01:02;95870.25;;;18.06;97.53
23677;BME280;31493;49.058;12.190;2022-09-09T13:03:31;95869.34;;;18.23;98.02